sensor_id;sensor_type;location;lat;lon;timestamp;noise_LAeq;noise_LA_min;noise_LA_max;noise_LA01;noise_LA95
67308;Laerm;57662;51.436;5.978;2024-02-16T00:00:04;38.22;37.17;39.34;;
67308;Laerm;57662;51.436;5.978;2024-02-16T00:00:15;38.30;37.25;41.09;;
67308;Laerm;57662;51.436;5.978;2024-02-16T00:00:26;38.24;37.13;39.45;;
67308;Laerm;57662;51.436;5.978;2024-02-16T00:00:36;38.19;37.09;39.14;;
67308;Laerm;57662;51.436;5.978;2024-02-16T00:00:47;38.14;36.84;39.14;;
67308;Laerm;57662;51.436;5.978;2024-02-16T00:00:58;38.19;36.96;39.44;;
67308;Laerm;57662;51.436;5.978;2024-02-16T00:01:08;38.25;37.19;39.29;;
67308;Laerm;57662;51.436;5.978;2024-02-16T00:01:18;38.24;37.24;39.21;;
67308;Laerm;57662;51.436;5.978;2024-02-16T00:01:28;38.16;37.12;39.23;;
67308;Laerm;57662;51.436;5.978;2024-02-16T00:01:39;38.20;36.98;39.16;;
67308;Laerm;57662;51.436;5.978;2024-02-16T00:01:49;38.14;36.66;39.09;;
67308;Laerm;57662;51.436;5.978;2024-02-16T00:02:00;38.19;37.13;39.31;;
67308;Laerm;57662;51.436;5.978;2024-02-16T00:02:11;38.20;37.02;39.48;;
67308;Laerm;57662;51.436;5.978;2024-02-16T00:02:21;38.19;37.23;39.16;;
67308;Laerm;57662;51.436;5.978;2024-02-16T00:02:32;38.21;37.17;39.65;;
67308;Laerm;57662;51.436;5.978;2024-02-16T00:02:43;38.16;36.94;39.30;;
67308;Laerm;57662;51.436;5.978;2024-02-16T00:02:54;38.17;37.06;39.15;;
67308;Laerm;57662;51.436;5.978;2024-02-16T00:03:04;38.19;37.13;39.28;;
67308;Laerm;57662;51.436;5.978;2024-02-16T00:03:14;38.16;36.36;39.07;;
67308;Laerm;57662;51.436;5.978;2024-02-16T00:03:24;38.23;37.19;39.12;;
67308;Laerm;57662;51.436;5.978;2024-02-16T00:03:35;38.18;37.07;39.24;;
67308;Laerm;57662;51.436;5.978;2024-02-16T00:03:45;38.22;36.91;39.04;;
67308;Laerm;57662;51.436;5.978;2024-02-16T00:03:55;38.18;36.92;39.20;;
67308;Laerm;57662;51.436;5.978;2024-02-16T00:04:05;38.28;37.10;39.24;;
67308;Laerm;57662;51.436;5.978;2024-02-16T00:04:17;38.23;37.22;39.38;;
67308;Laerm;57662;51.436;5.978;2024-02-16T00:04:27;38.20;37.13;39.20;;
67308;Laerm;57662;51.436;5.978;2024-02-16T00:04:38;38.21;37.05;39.40;;
67308;Laerm;57662;51.436;5.978;2024-02-16T00:04:48;38.18;37.06;39.18;;
67308;Laerm;57662;51.436;5.978;2024-02-16T00:04:58;38.22;37.21;39.29;;
67308;Laerm;57662;51.436;5.978;2024-02-16T00:05:09;38.33;37.04;39.64;;
67308;Laerm;57662;51.436;5.978;2024-02-16T00:05:21;38.35;37.00;43.19;;
67308;Laerm;57662;51.436;5.978;2024-02-16T00:05:32;38.30;37.07;41.84;;
67308;Laerm;57662;51.436;5.978;2024-02-16T00:05:42;38.22;37.05;39.57;;
67308;Laerm;57662;51.436;5.978;2024-02-16T00:05:52;38.27;37.23;39.82;;
67308;Laerm;57662;51.436;5.978;2024-02-16T00:06:03;38.14;36.96;39.30;;
67308;Laerm;57662;51.436;5.978;2024-02-16T00:06:13;38.32;37.04;39.51;;
67308;Laerm;57662;51.436;5.978;2024-02-16T00:06:23;38.21;37.19;39.51;;
67308;Laerm;57662;51.436;5.978;2024-02-16T00:06:34;38.19;37.07;39.17;;
67308;Laerm;57662;51.436;5.978;2024-02-16T00:06:44;38.23;37.04;39.59;;
67308;Laerm;57662;51.436;5.978;2024-02-16T00:06:54;38.18;37.18;39.54;;
67308;Laerm;57662;51.436;5.978;2024-02-16T00:07:05;38.14;36.95;39.45;;
67308;Laerm;57662;51.436;5.978;2024-02-16T00:07:15;38.17;36.95;39.28;;
67308;Laerm;57662;51.436;5.978;2024-02-16T00:07:25;38.20;37.12;39.26;;
67308;Laerm;57662;51.436;5.978;2024-02-16T00:07:36;38.23;37.35;39.52;;
67308;Laerm;57662;51.436;5.978;2024-02-16T00:07:47;38.20;37.03;39.21;;
67308;Laerm;57662;51.436;5.978;2024-02-16T00:07:57;38.21;37.23;39.63;;
67308;Laerm;57662;51.436;5.978;2024-02-16T00:08:07;38.14;37.05;39.07;;
67308;Laerm;57662;51.436;5.978;2024-02-16T00:08:18;38.16;36.88;39.11;;
67308;Laerm;57662;51.436;5.978;2024-02-16T00:08:28;38.23;37.28;39.31;;
67308;Laerm;57662;51.436;5.978;2024-02-16T00:08:39;38.16;37.35;39.29;;
67308;Laerm;57662;51.436;5.978;2024-02-16T00:08:50;38.14;37.14;39.27;;
67308;Laerm;57662;51.436;5.978;2024-02-16T00:09:00;38.14;37.10;39.36;;
67308;Laerm;57662;51.436;5.978;2024-02-16T00:09:11;38.12;36.91;39.20;;
67308;Laerm;57662;51.436;5.978;2024-02-16T00:09:22;38.17;37.01;39.31;;
67308;Laerm;57662;51.436;5.978;2024-02-16T00:09:32;38.18;37.15;39.12;;
67308;Laerm;57662;51.436;5.978;2024-02-16T00:09:43;38.18;37.18;39.49;;
67308;Laerm;57662;51.436;5.978;2024-02-16T00:09:53;38.21;36.78;39.80;;
67308;Laerm;57662;51.436;5.978;2024-02-16T00:10:04;38.16;36.72;39.25;;
67308;Laerm;57662;51.436;5.978;2024-02-16T00:10:14;38.22;37.08;39.36;;
67308;Laerm;57662;51.436;5.978;2024-02-16T00:10:25;38.23;37.04;39.73;;
67308;Laerm;57662;51.436;5.978;2024-02-16T00:10:35;38.20;37.34;39.80;;
67308;Laerm;57662;51.436;5.978;2024-02-16T00:10:45;38.20;37.23;39.53;;
67308;Laerm;57662;51.436;5.978;2024-02-16T00:10:56;38.19;36.98;39.00;;
67308;Laerm;57662;51.436;5.978;2024-02-16T00:11:06;38.19;37.10;39.45;;
67308;Laerm;57662;51.436;5.978;2024-02-16T00:11:16;38.18;36.85;39.20;;
67308;Laerm;57662;51.436;5.978;2024-02-16T00:11:27;38.21;37.01;39.19;;
67308;Laerm;57662;51.436;5.978;2024-02-16T00:11:38;38.21;37.17;39.34;;
67308;Laerm;57662;51.436;5.978;2024-02-16T00:11:49;38.20;36.91;39.18;;
67308;Laerm;57662;51.436;5.978;2024-02-16T00:12:00;38.14;36.99;39.15;;
67308;Laerm;57662;51.436;5.978;2024-02-16T00:12:11;38.20;37.21;39.08;;
67308;Laerm;57662;51.436;5.978;2024-02-16T00:12:22;38.15;37.08;39.17;;
67308;Laerm;57662;51.436;5.978;2024-02-16T00:12:33;38.19;36.99;39.09;;
67308;Laerm;57662;51.436;5.978;2024-02-16T00:12:43;38.17;37.12;39.40;;
67308;Laerm;57662;51.436;5.978;2024-02-16T00:12:54;38.12;36.78;39.15;;
67308;Laerm;57662;51.436;5.978;2024-02-16T00:13:04;38.22;37.26;39.39;;
67308;Laerm;57662;51.436;5.978;2024-02-16T00:13:14;38.18;36.91;39.27;;
67308;Laerm;57662;51.436;5.978;2024-02-16T00:13:25;38.20;36.80;39.28;;
67308;Laerm;57662;51.436;5.978;2024-02-16T00:13:35;38.19;37.21;39.14;;
67308;Laerm;57662;51.436;5.978;2024-02-16T00:13:45;38.20;37.25;39.30;;
67308;Laerm;57662;51.436;5.978;2024-02-16T00:13:55;38.18;37.03;39.40;;
67308;Laerm;57662;51.436;5.978;2024-02-16T00:14:06;38.24;36.81;39.40;;
67308;Laerm;57662;51.436;5.978;2024-02-16T00:14:16;38.22;37.12;39.30;;
67308;Laerm;57662;51.436;5.978;2024-02-16T00:14:26;38.13;37.21;38.99;;
67308;Laerm;57662;51.436;5.978;2024-02-16T00:14:37;38.15;37.17;39.03;;
67308;Laerm;57662;51.436;5.978;2024-02-16T00:14:47;38.18;37.03;39.24;;
67308;Laerm;57662;51.436;5.978;2024-02-16T00:15:00;38.11;36.88;39.26;;
67308;Laerm;57662;51.436;5.978;2024-02-16T00:15:11;38.15;37.10;39.38;;
67308;Laerm;57662;51.436;5.978;2024-02-16T00:15:22;38.11;37.11;39.04;;
67308;Laerm;57662;51.436;5.978;2024-02-16T00:15:33;38.07;37.12;39.24;;
67308;Laerm;57662;51.436;5.978;2024-02-16T00:15:44;38.07;36.76;39.20;;
67308;Laerm;57662;51.436;5.978;2024-02-16T00:15:54;38.10;36.90;39.32;;
67308;Laerm;57662;51.436;5.978;2024-02-16T00:16:05;38.18;37.15;39.15;;
67308;Laerm;57662;51.436;5.978;2024-02-16T00:16:15;38.16;37.02;39.12;;
67308;Laerm;57662;51.436;5.978;2024-02-16T00:16:25;38.14;37.04;39.23;;
67308;Laerm;57662;51.436;5.978;2024-02-16T00:16:36;38.12;36.85;39.03;;
67308;Laerm;57662;51.436;5.978;2024-02-16T00:16:47;38.13;37.06;39.50;;
67308;Laerm;57662;51.436;5.978;2024-02-16T00:17:16;38.50;37.17;40.39;;
67308;Laerm;57662;51.436;5.978;2024-02-16T00:17:26;38.49;37.29;39.65;;
67308;Laerm;57662;51.436;5.978;2024-02-16T00:17:37;39.05;37.36;40.23;;
67308;Laerm;57662;51.436;5.978;2024-02-16T00:17:47;47.81;37.72;54.10;;
67308;Laerm;57662;51.436;5.978;2024-02-16T00:17:58;52.61;50.49;54.70;;
67308;Laerm;57662;51.436;5.978;2024-02-16T00:18:09;50.83;43.50;54.93;;
67308;Laerm;57662;51.436;5.978;2024-02-16T00:18:19;40.28;37.77;45.13;;
67308;Laerm;57662;51.436;5.978;2024-02-16T00:18:29;38.38;37.23;39.50;;
67308;Laerm;57662;51.436;5.978;2024-02-16T00:18:39;38.15;36.90;39.24;;
67308;Laerm;57662;51.436;5.978;2024-02-16T00:18:50;38.13;37.09;39.05;;
67308;Laerm;57662;51.436;5.978;2024-02-16T00:19:00;38.16;37.18;39.65;;
67308;Laerm;57662;51.436;5.978;2024-02-16T00:19:10;38.11;36.66;39.60;;
67308;Laerm;57662;51.436;5.978;2024-02-16T00:19:21;38.15;37.08;39.17;;
67308;Laerm;57662;51.436;5.978;2024-02-16T00:19:32;38.14;36.76;39.25;;
67308;Laerm;57662;51.436;5.978;2024-02-16T00:19:42;38.09;37.17;39.13;;
67308;Laerm;57662;51.436;5.978;2024-02-16T00:19:53;38.03;36.92;39.09;;
67308;Laerm;57662;51.436;5.978;2024-02-16T00:20:03;38.07;36.65;39.06;;
67308;Laerm;57662;51.436;5.978;2024-02-16T00:20:13;38.08;36.92;39.02;;
67308;Laerm;57662;51.436;5.978;2024-02-16T00:20:24;38.06;36.96;39.40;;
67308;Laerm;57662;51.436;5.978;2024-02-16T00:20:34;38.07;37.08;39.20;;
67308;Laerm;57662;51.436;5.978;2024-02-16T00:20:44;38.12;37.01;38.99;;
67308;Laerm;57662;51.436;5.978;2024-02-16T00:20:56;38.08;36.87;39.21;;
67308;Laerm;57662;51.436;5.978;2024-02-16T00:21:06;38.18;36.93;39.46;;
67308;Laerm;57662;51.436;5.978;2024-02-16T00:21:16;38.15;36.98;39.17;;
67308;Laerm;57662;51.436;5.978;2024-02-16T00:21:27;38.19;37.11;39.30;;
67308;Laerm;57662;51.436;5.978;2024-02-16T00:21:37;38.16;36.79;39.17;;
67308;Laerm;57662;51.436;5.978;2024-02-16T00:21:47;38.12;37.10;39.02;;
67308;Laerm;57662;51.436;5.978;2024-02-16T00:21:57;38.12;37.01;39.49;;
67308;Laerm;57662;51.436;5.978;2024-02-16T00:22:08;38.07;36.81;39.39;;
67308;Laerm;57662;51.436;5.978;2024-02-16T00:22:18;38.11;36.78;39.42;;
67308;Laerm;57662;51.436;5.978;2024-02-16T00:22:28;38.09;36.93;39.20;;
67308;Laerm;57662;51.436;5.978;2024-02-16T00:22:39;38.10;37.08;39.18;;
67308;Laerm;57662;51.436;5.978;2024-02-16T00:22:49;38.14;37.01;39.25;;
67308;Laerm;57662;51.436;5.978;2024-02-16T00:22:59;38.88;37.17;41.29;;
67308;Laerm;57662;51.436;5.978;2024-02-16T00:23:12;39.18;37.43;40.68;;
67308;Laerm;57662;51.436;5.978;2024-02-16T00:23:22;39.11;37.60;40.67;;
67308;Laerm;57662;51.436;5.978;2024-02-16T00:23:35;39.04;37.74;40.19;;
67308;Laerm;57662;51.436;5.978;2024-02-16T00:23:45;55.91;38.26;62.97;;
67308;Laerm;57662;51.436;5.978;2024-02-16T00:23:56;60.20;53.21;66.04;;
67308;Laerm;57662;51.436;5.978;2024-02-16T00:24:06;57.13;40.74;62.60;;
67308;Laerm;57662;51.436;5.978;2024-02-16T00:24:17;39.52;37.76;42.37;;
67308;Laerm;57662;51.436;5.978;2024-02-16T00:24:27;47.51;37.68;54.69;;
67308;Laerm;57662;51.436;5.978;2024-02-16T00:24:38;56.27;51.48;60.62;;
67308;Laerm;57662;51.436;5.978;2024-02-16T00:24:48;56.19;51.86;59.93;;
67308;Laerm;57662;51.436;5.978;2024-02-16T00:24:58;46.11;38.60;54.49;;
67308;Laerm;57662;51.436;5.978;2024-02-16T00:25:09;39.29;37.88;41.07;;
67308;Laerm;57662;51.436;5.978;2024-02-16T00:25:19;38.77;37.46;40.43;;
67308;Laerm;57662;51.436;5.978;2024-02-16T00:25:30;38.36;37.39;39.32;;
67308;Laerm;57662;51.436;5.978;2024-02-16T00:25:40;38.25;37.19;39.37;;
67308;Laerm;57662;51.436;5.978;2024-02-16T00:25:51;38.18;37.18;39.36;;
67308;Laerm;57662;51.436;5.978;2024-02-16T00:26:01;38.19;37.08;39.24;;
67308;Laerm;57662;51.436;5.978;2024-02-16T00:26:12;38.14;36.90;39.06;;
67308;Laerm;57662;51.436;5.978;2024-02-16T00:26:22;38.15;36.95;39.48;;
67308;Laerm;57662;51.436;5.978;2024-02-16T00:26:33;38.19;36.50;39.67;;
67308;Laerm;57662;51.436;5.978;2024-02-16T00:26:44;38.18;36.87;39.42;;
67308;Laerm;57662;51.436;5.978;2024-02-16T00:26:55;38.14;36.65;39.22;;
67308;Laerm;57662;51.436;5.978;2024-02-16T00:27:05;38.16;36.79;39.29;;
67308;Laerm;57662;51.436;5.978;2024-02-16T00:27:16;38.19;36.95;39.55;;
67308;Laerm;57662;51.436;5.978;2024-02-16T00:27:26;38.13;37.17;39.10;;
67308;Laerm;57662;51.436;5.978;2024-02-16T00:27:36;38.19;36.81;39.43;;
67308;Laerm;57662;51.436;5.978;2024-02-16T00:27:46;38.10;36.98;39.12;;
67308;Laerm;57662;51.436;5.978;2024-02-16T00:27:57;38.11;36.59;39.20;;
67308;Laerm;57662;51.436;5.978;2024-02-16T00:28:07;38.24;36.95;39.29;;
67308;Laerm;57662;51.436;5.978;2024-02-16T00:28:18;38.09;36.79;39.40;;
67308;Laerm;57662;51.436;5.978;2024-02-16T00:28:28;38.08;36.83;39.54;;
67308;Laerm;57662;51.436;5.978;2024-02-16T00:28:57;38.10;36.64;39.30;;
67308;Laerm;57662;51.436;5.978;2024-02-16T00:29:08;38.18;36.99;39.22;;
67308;Laerm;57662;51.436;5.978;2024-02-16T00:29:18;38.16;36.86;39.20;;
67308;Laerm;57662;51.436;5.978;2024-02-16T00:29:29;38.26;36.77;39.37;;
67308;Laerm;57662;51.436;5.978;2024-02-16T00:29:39;38.18;37.14;39.30;;
67308;Laerm;57662;51.436;5.978;2024-02-16T00:29:50;38.16;37.14;39.22;;
67308;Laerm;57662;51.436;5.978;2024-02-16T00:30:00;38.11;36.85;39.14;;
67308;Laerm;57662;51.436;5.978;2024-02-16T00:30:13;38.06;36.61;39.08;;
67308;Laerm;57662;51.436;5.978;2024-02-16T00:30:23;38.28;37.05;39.92;;
67308;Laerm;57662;51.436;5.978;2024-02-16T00:30:34;38.85;37.50;40.27;;
67308;Laerm;57662;51.436;5.978;2024-02-16T00:30:44;38.60;37.37;40.04;;
67308;Laerm;57662;51.436;5.978;2024-02-16T00:30:54;38.75;37.40;40.20;;
67308;Laerm;57662;51.436;5.978;2024-02-16T00:31:04;38.93;37.57;41.74;;
67308;Laerm;57662;51.436;5.978;2024-02-16T00:31:15;54.31;39.50;60.07;;
67308;Laerm;57662;51.436;5.978;2024-02-16T00:31:26;53.05;50.56;55.15;;
67308;Laerm;57662;51.436;5.978;2024-02-16T00:31:36;50.97;41.53;55.01;;
67308;Laerm;57662;51.436;5.978;2024-02-16T00:31:46;39.48;37.91;44.34;;
67308;Laerm;57662;51.436;5.978;2024-02-16T00:31:57;38.67;37.36;39.65;;
67308;Laerm;57662;51.436;5.978;2024-02-16T00:32:09;38.23;36.96;39.21;;
67308;Laerm;57662;51.436;5.978;2024-02-16T00:32:19;38.14;36.82;39.01;;
67308;Laerm;57662;51.436;5.978;2024-02-16T00:32:29;38.15;37.02;39.13;;
67308;Laerm;57662;51.436;5.978;2024-02-16T00:32:40;38.05;36.74;38.97;;
67308;Laerm;57662;51.436;5.978;2024-02-16T00:32:50;38.04;36.90;39.08;;
67308;Laerm;57662;51.436;5.978;2024-02-16T00:33:05;38.11;37.00;39.23;;
67308;Laerm;57662;51.436;5.978;2024-02-16T00:33:17;38.01;36.85;39.05;;
67308;Laerm;57662;51.436;5.978;2024-02-16T00:33:28;38.12;36.87;39.72;;
67308;Laerm;57662;51.436;5.978;2024-02-16T00:33:39;38.10;37.11;39.01;;
67308;Laerm;57662;51.436;5.978;2024-02-16T00:33:50;38.12;37.08;39.24;;
67308;Laerm;57662;51.436;5.978;2024-02-16T00:34:00;38.06;36.84;39.08;;
67308;Laerm;57662;51.436;5.978;2024-02-16T00:34:11;38.12;37.05;39.39;;
67308;Laerm;57662;51.436;5.978;2024-02-16T00:34:21;38.06;37.04;39.16;;
67308;Laerm;57662;51.436;5.978;2024-02-16T00:34:31;38.15;37.07;39.47;;
67308;Laerm;57662;51.436;5.978;2024-02-16T00:34:42;38.05;37.06;39.00;;
67308;Laerm;57662;51.436;5.978;2024-02-16T00:34:53;38.19;37.10;39.55;;
67308;Laerm;57662;51.436;5.978;2024-02-16T00:35:03;38.12;36.72;39.17;;
67308;Laerm;57662;51.436;5.978;2024-02-16T00:35:14;38.16;37.16;39.26;;
67308;Laerm;57662;51.436;5.978;2024-02-16T00:35:26;38.11;36.67;39.36;;
67308;Laerm;57662;51.436;5.978;2024-02-16T00:35:36;38.01;36.82;39.13;;
67308;Laerm;57662;51.436;5.978;2024-02-16T00:35:47;38.08;37.19;39.14;;
67308;Laerm;57662;51.436;5.978;2024-02-16T00:36:00;38.09;37.18;38.92;;
67308;Laerm;57662;51.436;5.978;2024-02-16T00:36:10;38.00;37.06;38.94;;
67308;Laerm;57662;51.436;5.978;2024-02-16T00:36:20;38.05;36.92;39.19;;
67308;Laerm;57662;51.436;5.978;2024-02-16T00:36:30;38.11;37.06;39.24;;
67308;Laerm;57662;51.436;5.978;2024-02-16T00:36:43;38.05;37.05;39.26;;
67308;Laerm;57662;51.436;5.978;2024-02-16T00:36:54;38.08;36.90;39.52;;
67308;Laerm;57662;51.436;5.978;2024-02-16T00:37:05;38.70;37.37;40.05;;
67308;Laerm;57662;51.436;5.978;2024-02-16T00:37:21;38.50;37.22;39.80;;
67308;Laerm;57662;51.436;5.978;2024-02-16T00:37:31;38.40;37.08;39.43;;
67308;Laerm;57662;51.436;5.978;2024-02-16T00:37:42;52.88;37.96;60.63;;
67308;Laerm;57662;51.436;5.978;2024-02-16T00:37:52;57.37;50.83;62.60;;
67308;Laerm;57662;51.436;5.978;2024-02-16T00:38:02;51.43;45.01;55.40;;
67308;Laerm;57662;51.436;5.978;2024-02-16T00:38:13;41.26;38.23;46.41;;
67308;Laerm;57662;51.436;5.978;2024-02-16T00:38:23;38.76;37.59;40.07;;
67308;Laerm;57662;51.436;5.978;2024-02-16T00:38:33;38.38;37.28;39.45;;
67308;Laerm;57662;51.436;5.978;2024-02-16T00:38:44;38.23;37.01;39.13;;
67308;Laerm;57662;51.436;5.978;2024-02-16T00:38:57;38.14;36.82;39.17;;
67308;Laerm;57662;51.436;5.978;2024-02-16T00:39:07;38.10;37.00;39.14;;
67308;Laerm;57662;51.436;5.978;2024-02-16T00:39:18;38.09;36.96;39.03;;
67308;Laerm;57662;51.436;5.978;2024-02-16T00:39:28;38.04;37.13;38.95;;
67308;Laerm;57662;51.436;5.978;2024-02-16T00:39:39;38.06;36.95;39.13;;
67308;Laerm;57662;51.436;5.978;2024-02-16T00:39:52;38.02;36.88;39.09;;
67308;Laerm;57662;51.436;5.978;2024-02-16T00:40:04;38.01;36.58;38.93;;
67308;Laerm;57662;51.436;5.978;2024-02-16T00:40:16;38.02;36.87;39.34;;
67308;Laerm;57662;51.436;5.978;2024-02-16T00:40:26;38.06;36.71;39.29;;
67308;Laerm;57662;51.436;5.978;2024-02-16T00:40:37;38.07;37.01;39.18;;
67308;Laerm;57662;51.436;5.978;2024-02-16T00:40:53;38.02;36.80;39.11;;
67308;Laerm;57662;51.436;5.978;2024-02-16T00:41:03;38.06;36.86;39.13;;
67308;Laerm;57662;51.436;5.978;2024-02-16T00:41:21;38.08;36.82;39.15;;
67308;Laerm;57662;51.436;5.978;2024-02-16T00:41:31;38.15;37.10;39.56;;
67308;Laerm;57662;51.436;5.978;2024-02-16T00:41:42;38.18;37.17;39.17;;
67308;Laerm;57662;51.436;5.978;2024-02-16T00:41:52;38.11;37.02;38.97;;
67308;Laerm;57662;51.436;5.978;2024-02-16T00:42:02;38.14;37.05;39.09;;
67308;Laerm;57662;51.436;5.978;2024-02-16T00:42:13;38.10;36.68;39.26;;
67308;Laerm;57662;51.436;5.978;2024-02-16T00:42:23;38.15;36.73;39.32;;
67308;Laerm;57662;51.436;5.978;2024-02-16T00:42:33;38.07;36.61;39.08;;
67308;Laerm;57662;51.436;5.978;2024-02-16T00:42:44;38.11;36.99;38.99;;
67308;Laerm;57662;51.436;5.978;2024-02-16T00:42:54;38.06;36.94;38.86;;
67308;Laerm;57662;51.436;5.978;2024-02-16T00:43:05;38.06;36.81;39.19;;
67308;Laerm;57662;51.436;5.978;2024-02-16T00:43:15;38.01;36.87;39.04;;
67308;Laerm;57662;51.436;5.978;2024-02-16T00:43:25;38.07;37.06;39.03;;
67308;Laerm;57662;51.436;5.978;2024-02-16T00:43:36;38.00;36.62;39.18;;
67308;Laerm;57662;51.436;5.978;2024-02-16T00:43:46;38.10;37.20;39.21;;
67308;Laerm;57662;51.436;5.978;2024-02-16T00:43:56;38.04;37.14;38.95;;
67308;Laerm;57662;51.436;5.978;2024-02-16T00:44:07;38.05;36.85;39.07;;
67308;Laerm;57662;51.436;5.978;2024-02-16T00:44:17;38.02;36.91;38.96;;
67308;Laerm;57662;51.436;5.978;2024-02-16T00:44:28;38.01;36.83;39.01;;
67308;Laerm;57662;51.436;5.978;2024-02-16T00:44:38;37.97;36.82;39.01;;
67308;Laerm;57662;51.436;5.978;2024-02-16T00:44:49;38.65;37.22;40.65;;
67308;Laerm;57662;51.436;5.978;2024-02-16T00:44:59;39.33;37.35;41.26;;
67308;Laerm;57662;51.436;5.978;2024-02-16T00:45:13;38.84;37.27;40.36;;
67308;Laerm;57662;51.436;5.978;2024-02-16T00:45:24;39.20;37.37;42.36;;
67308;Laerm;57662;51.436;5.978;2024-02-16T00:45:34;55.77;41.38;60.24;;
67308;Laerm;57662;51.436;5.978;2024-02-16T00:45:44;58.36;55.16;61.65;;
67308;Laerm;57662;51.436;5.978;2024-02-16T00:45:55;53.72;42.25;57.93;;
67308;Laerm;57662;51.436;5.978;2024-02-16T00:46:06;42.09;39.14;45.01;;
67308;Laerm;57662;51.436;5.978;2024-02-16T00:46:16;38.92;37.55;40.38;;
67308;Laerm;57662;51.436;5.978;2024-02-16T00:46:26;38.59;37.41;39.90;;
67308;Laerm;57662;51.436;5.978;2024-02-16T00:46:36;38.25;37.12;39.32;;
67308;Laerm;57662;51.436;5.978;2024-02-16T00:46:47;38.10;36.79;39.21;;
67308;Laerm;57662;51.436;5.978;2024-02-16T00:46:58;38.00;37.14;39.03;;
67308;Laerm;57662;51.436;5.978;2024-02-16T00:47:08;38.01;36.80;39.15;;
67308;Laerm;57662;51.436;5.978;2024-02-16T00:47:20;38.02;36.95;38.98;;
67308;Laerm;57662;51.436;5.978;2024-02-16T00:47:30;37.96;37.02;38.88;;
67308;Laerm;57662;51.436;5.978;2024-02-16T00:47:40;37.96;36.87;39.00;;
67308;Laerm;57662;51.436;5.978;2024-02-16T00:47:51;37.93;37.06;38.87;;
67308;Laerm;57662;51.436;5.978;2024-02-16T00:48:01;37.94;36.72;39.22;;
67308;Laerm;57662;51.436;5.978;2024-02-16T00:48:17;39.32;37.30;41.81;;
67308;Laerm;57662;51.436;5.978;2024-02-16T00:48:28;38.97;37.57;40.64;;
67308;Laerm;57662;51.436;5.978;2024-02-16T00:48:38;39.44;37.69;41.10;;
67308;Laerm;57662;51.436;5.978;2024-02-16T00:48:49;39.19;37.50;40.61;;
67308;Laerm;57662;51.436;5.978;2024-02-16T00:48:59;42.81;37.71;52.06;;
67308;Laerm;57662;51.436;5.978;2024-02-16T00:49:09;56.75;52.57;59.88;;
67308;Laerm;57662;51.436;5.978;2024-02-16T00:49:23;57.59;54.95;59.97;;
67308;Laerm;57662;51.436;5.978;2024-02-16T00:49:33;53.18;38.47;60.18;;
67308;Laerm;57662;51.436;5.978;2024-02-16T00:49:43;38.56;37.22;40.47;;
67308;Laerm;57662;51.436;5.978;2024-02-16T00:49:54;37.98;36.82;38.95;;
67308;Laerm;57662;51.436;5.978;2024-02-16T00:50:04;39.27;36.85;41.86;;
67308;Laerm;57662;51.436;5.978;2024-02-16T00:50:17;39.42;37.35;42.07;;
67308;Laerm;57662;51.436;5.978;2024-02-16T00:50:27;38.45;37.02;39.48;;
67308;Laerm;57662;51.436;5.978;2024-02-16T00:50:37;38.46;37.05;39.53;;
67308;Laerm;57662;51.436;5.978;2024-02-16T00:50:48;52.00;37.78;59.29;;
67308;Laerm;57662;51.436;5.978;2024-02-16T00:50:58;54.01;51.54;56.27;;
67308;Laerm;57662;51.436;5.978;2024-02-16T00:51:09;52.58;43.87;55.46;;
67308;Laerm;57662;51.436;5.978;2024-02-16T00:51:19;41.66;37.85;45.67;;
67308;Laerm;57662;51.436;5.978;2024-02-16T00:51:30;38.61;37.21;40.97;;
67308;Laerm;57662;51.436;5.978;2024-02-16T00:51:40;38.15;36.71;39.17;;
67308;Laerm;57662;51.436;5.978;2024-02-16T00:51:51;38.00;36.76;39.19;;
67308;Laerm;57662;51.436;5.978;2024-02-16T00:52:01;37.98;36.84;38.87;;
67308;Laerm;57662;51.436;5.978;2024-02-16T00:52:12;37.95;36.67;39.22;;
67308;Laerm;57662;51.436;5.978;2024-02-16T00:52:22;37.96;36.90;38.83;;
67308;Laerm;57662;51.436;5.978;2024-02-16T00:52:32;37.92;36.89;38.76;;
67308;Laerm;57662;51.436;5.978;2024-02-16T00:52:43;37.94;36.98;38.74;;
67308;Laerm;57662;51.436;5.978;2024-02-16T00:52:55;37.90;36.64;38.98;;
67308;Laerm;57662;51.436;5.978;2024-02-16T00:53:05;38.00;36.95;39.66;;
67308;Laerm;57662;51.436;5.978;2024-02-16T00:53:16;38.63;37.31;40.17;;
67308;Laerm;57662;51.436;5.978;2024-02-16T00:53:26;38.80;37.19;40.01;;
67308;Laerm;57662;51.436;5.978;2024-02-16T00:53:36;38.76;37.48;40.02;;
67308;Laerm;57662;51.436;5.978;2024-02-16T00:53:47;38.88;37.44;40.80;;
67308;Laerm;57662;51.436;5.978;2024-02-16T00:53:57;51.37;38.72;56.73;;
67308;Laerm;57662;51.436;5.978;2024-02-16T00:54:07;40.11;37.19;48.33;;
67308;Laerm;57662;51.436;5.978;2024-02-16T00:54:17;38.11;36.85;39.24;;
67308;Laerm;57662;51.436;5.978;2024-02-16T00:54:28;38.02;36.63;38.95;;
67308;Laerm;57662;51.436;5.978;2024-02-16T00:54:38;38.02;36.82;39.53;;
67308;Laerm;57662;51.436;5.978;2024-02-16T00:54:49;37.91;36.90;38.80;;
67308;Laerm;57662;51.436;5.978;2024-02-16T00:54:59;37.97;36.70;39.07;;
67308;Laerm;57662;51.436;5.978;2024-02-16T00:55:09;37.94;36.99;38.99;;
67308;Laerm;57662;51.436;5.978;2024-02-16T00:55:20;37.91;36.72;39.00;;
67308;Laerm;57662;51.436;5.978;2024-02-16T00:55:30;37.93;36.67;38.71;;
67308;Laerm;57662;51.436;5.978;2024-02-16T00:55:40;37.93;36.81;39.09;;
67308;Laerm;57662;51.436;5.978;2024-02-16T00:55:51;38.02;37.07;39.07;;
67308;Laerm;57662;51.436;5.978;2024-02-16T00:56:02;38.00;36.91;39.30;;
67308;Laerm;57662;51.436;5.978;2024-02-16T00:56:13;38.05;36.80;39.35;;
67308;Laerm;57662;51.436;5.978;2024-02-16T00:56:23;38.50;37.00;40.07;;
67308;Laerm;57662;51.436;5.978;2024-02-16T00:56:33;38.70;37.26;40.30;;
67308;Laerm;57662;51.436;5.978;2024-02-16T00:56:43;38.99;37.35;40.51;;
67308;Laerm;57662;51.436;5.978;2024-02-16T00:56:54;38.95;37.54;40.63;;
67308;Laerm;57662;51.436;5.978;2024-02-16T00:57:05;38.79;37.27;40.16;;
67308;Laerm;57662;51.436;5.978;2024-02-16T00:57:15;48.40;38.23;57.41;;
67308;Laerm;57662;51.436;5.978;2024-02-16T00:57:25;56.25;53.14;62.29;;
67308;Laerm;57662;51.436;5.978;2024-02-16T00:57:35;56.33;51.58;61.15;;
67308;Laerm;57662;51.436;5.978;2024-02-16T00:57:46;44.56;37.23;52.93;;
67308;Laerm;57662;51.436;5.978;2024-02-16T00:57:56;38.21;36.83;39.94;;
67308;Laerm;57662;51.436;5.978;2024-02-16T00:58:06;37.97;36.71;38.98;;
67308;Laerm;57662;51.436;5.978;2024-02-16T00:58:16;37.92;36.85;38.85;;
67308;Laerm;57662;51.436;5.978;2024-02-16T00:58:27;37.96;36.90;38.88;;
67308;Laerm;57662;51.436;5.978;2024-02-16T00:58:39;37.98;36.92;39.17;;
67308;Laerm;57662;51.436;5.978;2024-02-16T00:58:49;37.95;36.67;39.21;;
67308;Laerm;57662;51.436;5.978;2024-02-16T00:59:00;37.95;36.64;38.78;;
67308;Laerm;57662;51.436;5.978;2024-02-16T00:59:10;38.03;36.87;38.92;;
67308;Laerm;57662;51.436;5.978;2024-02-16T00:59:20;37.98;36.84;39.08;;
67308;Laerm;57662;51.436;5.978;2024-02-16T00:59:31;37.94;36.67;39.35;;
67308;Laerm;57662;51.436;5.978;2024-02-16T00:59:41;37.91;36.85;38.86;;
67308;Laerm;57662;51.436;5.978;2024-02-16T00:59:52;37.93;36.49;39.03;;
67308;Laerm;57662;51.436;5.978;2024-02-16T01:00:02;37.95;36.65;38.99;;
67308;Laerm;57662;51.436;5.978;2024-02-16T01:00:13;38.39;37.06;41.41;;